»·PEaware :: PCM245 KSMX-KONT

PCM245 :: KSMX-KONT

FLIGHT INFORMATION

Flight Status: Arrived
Operator: Unknown
More flights by this operator :: More flights under this callsign
Pilot: Armando C. (16967)
Aircraft: CESSNA 208 CARAVAN
(C208)
More flights by this aircraft type
Origin: KSMX Santa Maria Pub/Capt Hancock
United States
Destination: KONT Ontario Intl
United States
More flights between these airports :: More routes between these airports
Route: +RZS V186 PDZ
File this flight plan on PilotEdge
Remarks: TEC ROUTE SBAP51 / PBN / D2 DOF / 181011 REG / N762FE OPR / PCM RMK / TCAS SIMBRIEF
Altitude:
(Current/Filed)
7,000ft
Speed:
(Current/Filed)
168kts
Departed: 11-Oct-18 12:47 PM
Arrived: 11-Oct-18 02:06 PM
Distance/Time
Traveled:
150nm/1:19
Distance/Time
To Go:
Arrived

Flight Plot

Page will automatically refresh every two minutes.


Map Options




Map Legend


Flown Route
Filed Route
Departure Airport
Arrival Airport
Navaid (VOR, NDB)
Fix

Horizontal Profiles

Position Reports

Time Latitude Longitude Heading Altitude Ground
Speed
11-Oct-18 12:33 34.893982 -120.442936 252 266ft 0kts
11-Oct-18 12:34 34.893982 -120.442936 252 266ft 0kts
11-Oct-18 12:35 34.893982 -120.442936 252 266ft 0kts
11-Oct-18 12:36 34.893982 -120.442936 252 266ft 0kts
11-Oct-18 12:37 34.893982 -120.442936 252 266ft 0kts
11-Oct-18 12:38 34.893982 -120.442936 252 266ft 0kts
11-Oct-18 12:39 34.893982 -120.442936 252 266ft 0kts
11-Oct-18 12:40 34.893982 -120.442936 252 266ft 0kts
11-Oct-18 12:41 34.893982 -120.442936 252 266ft 0kts
11-Oct-18 12:42 34.893982 -120.442936 252 266ft 0kts
11-Oct-18 12:43 34.893982 -120.442936 252 266ft 0kts
11-Oct-18 12:44 34.893981 -120.442939 252 266ft 0kts
11-Oct-18 12:45 34.893817 -120.443507 244 266ft 4kts
11-Oct-18 12:46 34.893876 -120.444856 214 266ft 3kts
11-Oct-18 12:47 34.893414 -120.444951 180 266ft 0kts
11-Oct-18 12:48 34.893210 -120.446255 315 266ft 26kts
11-Oct-18 12:49 34.910674 -120.467090 316 1171ft 99kts
11-Oct-18 12:50 34.930766 -120.489940 317 2173ft 100kts
11-Oct-18 12:51 34.950594 -120.513265 331 3262ft 98kts
11-Oct-18 12:52 34.961503 -120.494111 119 4232ft 104kts
11-Oct-18 12:53 34.943578 -120.463856 126 5039ft 118kts
11-Oct-18 12:54 34.923895 -120.431912 126 5821ft 123kts
11-Oct-18 12:55 34.903435 -120.398847 126 6605ft 124kts
11-Oct-18 12:56 34.883157 -120.366148 126 7006ft 149kts
11-Oct-18 12:57 34.859656 -120.328446 126 6999ft 165kts
11-Oct-18 12:58 34.832500 -120.284794 126 6995ft 168kts
11-Oct-18 12:59 34.804193 -120.239294 126 6991ft 169kts
11-Oct-18 13:00 34.776548 -120.194896 126 6987ft 169kts
11-Oct-18 13:01 34.749947 -120.152226 126 6983ft 169kts
11-Oct-18 13:02 34.723520 -120.109886 126 6981ft 169kts
11-Oct-18 13:03 34.696599 -120.066806 126 6981ft 169kts
11-Oct-18 13:04 34.670196 -120.024606 126 6981ft 169kts
11-Oct-18 13:05 34.644621 -119.983786 126 6981ft 169kts
11-Oct-18 13:06 34.616779 -119.939411 126 7001ft 168kts
11-Oct-18 13:07 34.588690 -119.894682 125 7003ft 169kts
11-Oct-18 13:08 34.560603 -119.849680 129 7005ft 165kts
11-Oct-18 13:09 34.532976 -119.806004 130 7007ft 163kts
11-Oct-18 13:10 34.506072 -119.762206 126 7009ft 165kts
11-Oct-18 13:11 34.482845 -119.719253 126 7009ft 166kts
11-Oct-18 13:12 34.460134 -119.677261 126 7009ft 166kts
11-Oct-18 13:13 34.435110 -119.631044 126 7009ft 166kts
11-Oct-18 13:14 34.415679 -119.595200 126 7009ft 166kts
11-Oct-18 13:15 34.392350 -119.552213 125 7009ft 166kts
11-Oct-18 13:16 34.367399 -119.506308 125 7009ft 164kts
11-Oct-18 13:17 34.342387 -119.460617 120 7009ft 165kts
11-Oct-18 13:18 34.319372 -119.413492 90 7011ft 165kts
11-Oct-18 13:19 34.322767 -119.359419 82 7009ft 166kts
11-Oct-18 13:20 34.326638 -119.309066 83 7009ft 166kts
11-Oct-18 13:21 34.330939 -119.253215 83 7009ft 173kts
11-Oct-18 13:22 34.335184 -119.197625 83 7009ft 175kts
11-Oct-18 13:23 34.339538 -119.140332 84 7008ft 177kts
11-Oct-18 13:24 34.343945 -119.081977 85 7009ft 177kts
11-Oct-18 13:25 34.348345 -119.023260 85 7027ft 177kts
11-Oct-18 13:26 34.352759 -118.963829 85 7027ft 178kts
11-Oct-18 13:27 34.357095 -118.905225 85 7027ft 177kts
11-Oct-18 13:28 34.348305 -118.849578 114 7027ft 175kts
11-Oct-18 13:29 34.330065 -118.796019 113 7027ft 175kts
11-Oct-18 13:30 34.311546 -118.741604 113 7029ft 176kts
11-Oct-18 13:31 34.293108 -118.687396 113 7000ft 176kts
11-Oct-18 13:32 34.275168 -118.634800 113 7000ft 176kts
11-Oct-18 13:33 34.257491 -118.583048 113 7000ft 176kts
11-Oct-18 13:34 34.239076 -118.529245 113 7000ft 176kts
11-Oct-18 13:35 34.221053 -118.474756 110 7001ft 176kts
11-Oct-18 13:36 34.204643 -118.420337 109 7001ft 176kts
11-Oct-18 13:37 34.188089 -118.365553 109 7001ft 175kts
11-Oct-18 13:38 34.172024 -118.312487 109 6999ft 175kts
11-Oct-18 13:39 34.155096 -118.256792 109 6395ft 181kts
11-Oct-18 13:40 34.138300 -118.201538 109 5611ft 178kts
11-Oct-18 13:41 34.120393 -118.147014 110 5001ft 168kts
11-Oct-18 13:42 34.104988 -118.097163 109 5001ft 161kts
11-Oct-18 13:43 34.089212 -118.045658 109 5001ft 167kts
11-Oct-18 13:44 34.073147 -117.993278 109 5002ft 168kts
11-Oct-18 13:45 34.056964 -117.940594 110 5002ft 169kts
11-Oct-18 13:46 34.040709 -117.887770 110 5001ft 169kts
11-Oct-18 13:47 34.026000 -117.837882 108 5584ft 149kts
11-Oct-18 13:48 34.010931 -117.791656 112 6001ft 157kts
11-Oct-18 13:49 33.993429 -117.740922 111 5997ft 168kts
11-Oct-18 13:50 33.975426 -117.688862 111 5997ft 169kts
11-Oct-18 13:51 33.957366 -117.636710 111 5998ft 169kts
11-Oct-18 13:52 33.939244 -117.584463 110 6000ft 168kts
11-Oct-18 13:53 33.922064 -117.532615 95 5962ft 167kts
11-Oct-18 13:54 33.938720 -117.480628 70 5464ft 165kts
11-Oct-18 13:55 33.938562 -117.428438 96 5298ft 149kts
11-Oct-18 13:56 33.932379 -117.379859 101 5300ft 146kts
11-Oct-18 13:57 33.943178 -117.340777 359 5128ft 155kts
11-Oct-18 13:58 33.986801 -117.341567 358 4801ft 152kts
11-Oct-18 13:59 34.027267 -117.341914 358 4805ft 144kts
11-Oct-18 14:00 34.053563 -117.364803 277 4704ft 128kts
11-Oct-18 14:01 34.054695 -117.405094 271 3907ft 113kts
11-Oct-18 14:02 34.054751 -117.440912 271 3299ft 95kts
11-Oct-18 14:03 34.054755 -117.470954 270 2780ft 89kts
11-Oct-18 14:04 34.054799 -117.500795 270 2288ft 90kts
11-Oct-18 14:05 34.054842 -117.531357 270 1789ft 90kts
11-Oct-18 14:06 34.054875 -117.561378 270 1304ft 87kts
11-Oct-18 14:07 34.054945 -117.589571 273 920ft 68kts
11-Oct-18 14:08 34.054016 -117.594407 244 917ft 0kts
11-Oct-18 14:09 34.054016 -117.594407 244 917ft 0kts
11-Oct-18 14:10 34.053819 -117.597627 270 916ft 15kts
11-Oct-18 14:11 34.053839 -117.601465 267 916ft 11kts
11-Oct-18 14:12 34.052593 -117.601501 137 912ft 5kts
11-Oct-18 14:13 34.052013 -117.601375 321 911ft 4kts
11-Oct-18 14:14 34.052061 -117.601422 321 911ft 0kts

Navigation Log

Ident Type
1. KSMX Airport
2. RZS Navaid
3. ZIQOR Fix
4. DEANO Fix
5. HENER Fix
6. FIM Navaid
7. SESPE Fix
8. VNY Navaid
9. DARTS Fix
10. PURMS Fix
11. ELMOO Fix
12. ITSME Fix
13. PIRRO Fix
14. ADAMM Fix
15. BAYJY Fix
16. TIFNI Fix
17. PDZ Navaid
18. KONT Airport